Rocheport, Missouri
Current Conditions -  °F | °C
As of 5:15 PM on Tuesday 25 Nov 2014 (Local Time) from KVER Reporting Station
Clear Clear  
Wind Chill: 37°   Ceiling: Unl
Heat Index: 37°   Visibility: 10mi
Dew Point: 14°   Wind: 0mph
Humidity: 39%   Direction: NA
Pressure: 30.14"   Gusts: NA
Location:  38.98°N, 92.56°W
Report Text: KVER 252315Z AUTO 00000KT 10SM CLR 03/M10 A3014 RMK AO2 T00281101
Loading
Personal Weather Stations






























Interactive Weather Map New forecast layout! Learn more

10-Day Weather Forecast

Advertisements
Track Severe Weather on mobile